Time;durP1;ratioP1;P1;durP2;ratioP2;P2;SDS_P1;SDS_P2;PMS_P1;PMS_P2;Temp;Humidity;BMP_temperature;BMP_pressure;BME280_temperature;BME280_humidity;BME280_pressure;Samples;Min_cycle;Max_cycle;Signal;HPM_P1;HPM_P2
2023/11/21 00:00:51;;;;;;;4.95;1.75;;;7.80;99.90;;;;;;7374688;19;20086;-70
2023/11/21 00:03:23;;;;;;;5.45;1.90;;;7.80;99.90;;;;;;7377074;19;20010;-70
2023/11/21 00:05:53;;;;;;;3.28;1.88;;;7.80;99.90;;;;;;7375974;19;20086;-70
2023/11/21 00:08:23;;;;;;;5.28;1.83;;;7.90;99.90;;;;;;7375803;19;20043;-69
2023/11/21 00:10:54;;;;;;;4.72;1.80;;;7.90;99.90;;;;;;7377679;19;20022;-71
2023/11/21 00:13:24;;;;;;;5.85;1.80;;;7.90;99.90;;;;;;7376789;19;20040;-70
2023/11/21 00:15:57;;;;;;;5.38;1.88;;;7.90;99.90;;;;;;7375715;19;20027;-70
2023/11/21 00:18:27;;;;;;;2.95;1.58;;;7.90;99.90;;;;;;7376914;19;20047;-70
2023/11/21 00:20:58;;;;;;;7.32;2.05;;;7.90;99.90;;;;;;7376885;19;20614;-70
2023/11/21 00:23:29;;;;;;;5.90;1.80;;;7.90;99.90;;;;;;7376733;19;20379;-70
2023/11/21 00:25:59;;;;;;;10.25;2.35;;;8.00;99.90;;;;;;7375208;19;20014;-70
2023/11/21 00:28:29;;;;;;;6.47;2.20;;;8.00;99.90;;;;;;7377997;19;20010;-70
2023/11/21 00:31:04;;;;;;;5.35;1.90;;;8.00;99.90;;;;;;7376115;19;20090;-70
2023/11/21 00:33:34;;;;;;;7.45;2.30;;;8.00;99.90;;;;;;7376207;19;20014;-71
2023/11/21 00:36:09;;;;;;;4.63;1.90;;;8.00;99.90;;;;;;7374606;19;20702;-70
2023/11/21 00:38:40;;;;;;;5.07;1.80;;;8.00;99.90;;;;;;7376438;19;20010;-70
2023/11/21 00:41:10;;;;;;;3.95;1.40;;;8.00;99.90;;;;;;7374848;19;20086;-70
2023/11/21 00:43:40;;;;;;;3.58;1.50;;;8.00;99.90;;;;;;7374705;19;20348;-70
2023/11/21 00:46:12;;;;;;;5.00;1.70;;;8.00;99.90;;;;;;7375383;19;20021;-71
2023/11/21 00:48:42;;;;;;;3.38;1.33;;;8.10;99.90;;;;;;7376976;19;20064;-70
2023/11/21 00:51:12;;;;;;;6.28;1.50;;;8.10;99.90;;;;;;7375637;19;20015;-70
2023/11/21 00:53:42;;;;;;;3.70;1.58;;;8.10;99.90;;;;;;7376821;19;20014;-71
2023/11/21 00:56:13;;;;;;;4.22;1.60;;;8.10;99.90;;;;;;7375528;19;20032;-70
2023/11/21 00:58:46;;;;;;;3.58;1.58;;;8.10;99.90;;;;;;7376787;19;20483;-70
2023/11/21 01:01:19;;;;;;;3.05;1.50;;;8.10;99.90;;;;;;7373233;19;20463;-70
2023/11/21 01:03:49;;;;;;;3.85;1.50;;;8.20;99.90;;;;;;7373792;19;20081;-71
2023/11/21 01:06:19;;;;;;;4.53;1.17;;;8.20;99.90;;;;;;7374111;19;20467;-70
2023/11/21 01:08:50;;;;;;;5.30;2.05;;;8.20;99.90;;;;;;7375415;19;20147;-70
2023/11/21 01:11:20;;;;;;;4.00;1.65;;;8.20;99.90;;;;;;7374975;19;20070;-70
2023/11/21 01:13:51;;;;;;;3.85;1.65;;;8.30;99.90;;;;;;7378665;19;20030;-70
2023/11/21 01:16:24;;;;;;;3.65;1.52;;;8.30;99.90;;;;;;7381276;19;20017;-70
2023/11/21 01:18:54;;;;;;;5.40;1.63;;;8.30;99.90;;;;;;7381300;19;20018;-69
2023/11/21 01:21:25;;;;;;;4.22;1.77;;;8.30;99.90;;;;;;7380600;19;20010;-70
2023/11/21 01:23:55;;;;;;;7.20;1.92;;;8.30;99.90;;;;;;7381297;19;20031;-71
2023/11/21 01:26:25;;;;;;;4.72;1.90;;;8.30;99.90;;;;;;7379924;19;20480;-70
2023/11/21 01:28:55;;;;;;;3.78;1.80;;;8.30;99.90;;;;;;7382221;19;20516;-69
2023/11/21 01:31:29;;;;;;;4.22;1.75;;;8.20;99.90;;;;;;7381668;19;20484;-69
2023/11/21 01:34:00;;;;;;;5.18;2.00;;;8.30;99.90;;;;;;7381273;19;20364;-69
2023/11/21 01:36:35;;;;;;;4.38;1.65;;;8.20;99.90;;;;;;7380885;19;20381;-69
2023/11/21 01:39:08;;;;;;;4.20;1.92;;;8.20;99.90;;;;;;7381921;19;20010;-70
2023/11/21 01:41:38;;;;;;;4.50;1.63;;;8.20;99.90;;;;;;7380828;19;20853;-69
2023/11/21 01:44:09;;;;;;;5.72;1.98;;;8.30;99.90;;;;;;7380685;19;20035;-69
2023/11/21 01:46:42;;;;;;;2.40;1.40;;;8.20;99.90;;;;;;7379880;19;20026;-69
2023/11/21 01:49:14;;;;;;;4.00;1.50;;;8.20;99.90;;;;;;7381668;19;20011;-69
2023/11/21 01:51:48;;;;;;;5.88;1.75;;;8.30;99.90;;;;;;7381512;19;20015;-69
2023/11/21 01:54:19;;;;;;;2.70;1.63;;;8.30;99.90;;;;;;7380138;19;20078;-69
2023/11/21 01:56:50;;;;;;;4.93;1.52;;;8.30;99.90;;;;;;7381779;19;20360;-69
2023/11/21 01:59:22;;;;;;;2.67;1.23;;;8.30;99.90;;;;;;7375631;19;20031;-69
2023/11/21 02:01:56;;;;;;;4.72;1.60;;;8.20;99.90;;;;;;7379306;19;20014;-70
2023/11/21 02:04:27;;;;;;;4.88;1.33;;;8.20;99.90;;;;;;7379362;19;20491;-69
2023/11/21 02:06:58;;;;;;;3.97;1.60;;;8.20;99.90;;;;;;7380924;19;20010;-69
2023/11/21 02:09:30;;;;;;;4.65;1.70;;;8.20;99.90;;;;;;7377308;19;20025;-69
2023/11/21 02:12:01;;;;;;;5.85;1.70;;;8.20;99.90;;;;;;7379243;19;20079;-69
2023/11/21 02:14:31;;;;;;;4.65;2.00;;;8.20;99.90;;;;;;7376792;19;20486;-69
2023/11/21 02:17:04;;;;;;;3.17;1.90;;;8.20;99.90;;;;;;7379616;19;20015;-69
2023/11/21 02:19:34;;;;;;;4.85;1.80;;;8.20;99.90;;;;;;7379014;19;20032;-69
2023/11/21 02:22:06;;;;;;;4.47;1.73;;;8.30;99.90;;;;;;7379290;19;20011;-69
2023/11/21 02:24:39;;;;;;;3.75;1.80;;;8.30;99.90;;;;;;7377767;19;20359;-69
2023/11/21 02:27:09;;;;;;;4.90;1.50;;;8.30;99.90;;;;;;7380608;19;20006;-69
2023/11/21 02:29:40;;;;;;;4.88;1.50;;;8.30;99.90;;;;;;7380435;19;20114;-69
2023/11/21 02:32:10;;;;;;;4.35;1.48;;;8.30;99.90;;;;;;7379250;19;20017;-69
2023/11/21 02:34:40;;;;;;;4.50;1.25;;;8.30;99.90;;;;;;7377799;19;20565;-69
2023/11/21 02:37:11;;;;;;;4.45;1.58;;;8.30;99.90;;;;;;7379296;19;20021;-71
2023/11/21 02:39:44;;;;;;;4.88;1.70;;;8.30;99.90;;;;;;7378957;19;20101;-69
2023/11/21 02:42:15;;;;;;;4.20;1.30;;;8.40;99.90;;;;;;7378208;19;20075;-69
2023/11/21 02:44:45;;;;;;;4.72;1.52;;;8.30;99.90;;;;;;7377106;19;20070;-69
2023/11/21 02:47:15;;;;;;;7.40;1.92;;;8.30;99.90;;;;;;7378166;19;20010;-69
2023/11/21 02:49:45;;;;;;;2.80;1.30;;;8.30;99.90;;;;;;7378136;19;20007;-69
2023/11/21 02:52:15;;;;;;;6.57;1.60;;;8.30;99.90;;;;;;7377638;19;20002;-69
2023/11/21 02:54:47;;;;;;;3.38;1.15;;;8.30;99.90;;;;;;7377719;19;20026;-69
2023/11/21 02:57:18;;;;;;;3.70;1.48;;;8.30;99.90;;;;;;7379448;19;20498;-69
2023/11/21 02:59:48;;;;;;;3.00;1.40;;;8.30;99.90;;;;;;7377845;19;20014;-69
2023/11/21 03:02:19;;;;;;;2.83;1.30;;;8.30;99.90;;;;;;7378692;19;20105;-69
2023/11/21 03:04:49;;;;;;;2.47;1.30;;;8.30;99.90;;;;;;7378023;19;20507;-69
2023/11/21 03:07:20;;;;;;;3.95;1.17;;;8.20;99.90;;;;;;7378832;19;20008;-69
2023/11/21 03:09:53;;;;;;;3.53;1.27;;;8.20;99.90;;;;;;7378193;19;20006;-69
2023/11/21 03:12:23;;;;;;;4.50;1.45;;;8.20;99.90;;;;;;7375156;19;20011;-69
2023/11/21 03:14:54;;;;;;;4.85;1.10;;;8.30;99.90;;;;;;7375787;19;20027;-69
2023/11/21 03:17:24;;;;;;;2.58;1.42;;;8.30;99.90;;;;;;7376590;19;20037;-68
2023/11/21 03:19:54;;;;;;;3.70;1.30;;;8.40;99.90;;;;;;7378660;19;20011;-69
2023/11/21 03:22:25;;;;;;;3.53;1.25;;;8.30;99.90;;;;;;7376523;19;20086;-69
2023/11/21 03:24:58;;;;;;;4.18;1.50;;;8.40;99.90;;;;;;7377288;19;20014;-69
2023/11/21 03:27:29;;;;;;;2.47;1.55;;;8.30;99.90;;;;;;7378883;19;20007;-69
2023/11/21 03:29:59;;;;;;;2.95;1.40;;;8.30;99.90;;;;;;7376906;19;20011;-69
2023/11/21 03:32:29;;;;;;;3.45;1.45;;;8.30;99.90;;;;;;7375874;19;20023;-69
2023/11/21 03:35:02;;;;;;;4.80;1.60;;;8.30;99.90;;;;;;7374767;19;20099;-68
2023/11/21 03:37:32;;;;;;;3.67;1.70;;;8.30;99.90;;;;;;7376985;19;20011;-69
2023/11/21 03:40:08;;;;;;;3.00;1.40;;;8.30;99.90;;;;;;7376521;19;20483;-69
2023/11/21 03:42:38;;;;;;;3.30;1.40;;;8.30;99.90;;;;;;7375555;19;20010;-69
2023/11/21 03:45:09;;;;;;;3.17;1.15;;;8.20;99.90;;;;;;7375175;19;20518;-69
2023/11/21 03:47:40;;;;;;;5.70;1.77;;;8.20;99.90;;;;;;7376195;19;20166;-69
2023/11/21 03:50:11;;;;;;;3.35;1.58;;;8.20;99.90;;;;;;7377178;19;20010;-69
2023/11/21 03:52:41;;;;;;;3.72;1.48;;;8.20;99.90;;;;;;7377025;19;20018;-69
2023/11/21 03:55:14;;;;;;;3.53;1.50;;;8.20;99.90;;;;;;7374755;19;20039;-69
2023/11/21 03:57:45;;;;;;;4.72;1.60;;;8.20;99.90;;;;;;7375574;19;20018;-69
2023/11/21 04:00:34;;;;;;;1.77;1.27;;;8.20;99.90;;;;;;6865236;19;2004637;-69
2023/11/21 04:03:22;;;;;;;3.90;1.75;;;8.10;99.90;;;;;;7377493;19;20006;-69
2023/11/21 04:05:53;;;;;;;4.95;1.25;;;8.10;99.90;;;;;;7375772;19;20010;-69
2023/11/21 04:08:23;;;;;;;6.10;1.95;;;8.10;99.90;;;;;;7377456;19;20644;-69
2023/11/21 04:10:56;;;;;;;1.60;1.10;;;8.10;99.90;;;;;;7377146;19;20010;-69
2023/11/21 04:13:26;;;;;;;4.40;1.33;;;8.20;99.90;;;;;;7371002;19;20420;-69
2023/11/21 04:15:56;;;;;;;5.32;1.45;;;8.20;99.90;;;;;;7375658;19;20031;-69
2023/11/21 04:18:26;;;;;;;3.78;1.40;;;8.20;99.90;;;;;;7376080;19;20017;-69
2023/11/21 04:20:56;;;;;;;1.85;1.05;;;8.20;99.90;;;;;;7376849;19;20382;-69
2023/11/21 04:23:27;;;;;;;2.75;1.30;;;8.20;99.90;;;;;;7373507;19;20018;-69
2023/11/21 04:25:59;;;;;;;2.95;1.30;;;8.20;99.90;;;;;;7375024;19;20056;-70
2023/11/21 04:28:30;;;;;;;8.65;1.63;;;8.20;99.90;;;;;;7376361;19;20027;-69
2023/11/21 04:31:00;;;;;;;2.13;1.20;;;8.20;99.90;;;;;;7375482;19;20010;-69
2023/11/21 04:33:31;;;;;;;3.67;1.40;;;8.10;99.90;;;;;;7376167;19;20019;-69
2023/11/21 04:36:01;;;;;;;5.43;1.40;;;8.10;99.90;;;;;;7375475;19;20006;-69
2023/11/21 04:38:32;;;;;;;2.72;1.42;;;8.10;99.90;;;;;;7375002;19;20459;-70
2023/11/21 04:41:05;;;;;;;4.03;1.27;;;8.10;99.90;;;;;;7374269;19;20067;-70
2023/11/21 04:43:35;;;;;;;5.13;1.20;;;8.10;99.90;;;;;;7373707;19;20015;-70
2023/11/21 04:46:06;;;;;;;2.42;1.27;;;8.10;99.90;;;;;;7374194;19;20018;-70
2023/11/21 04:48:36;;;;;;;4.72;1.40;;;8.10;99.90;;;;;;7377116;19;20039;-70
2023/11/21 04:51:07;;;;;;;4.72;1.38;;;8.10;99.90;;;;;;7381774;19;20566;-70
2023/11/21 04:53:37;;;;;;;4.43;1.30;;;8.10;99.90;;;;;;7382273;19;20010;-69
2023/11/21 04:56:10;;;;;;;3.70;1.60;;;8.10;99.90;;;;;;7381018;19;20014;-69
2023/11/21 04:58:41;;;;;;;5.72;1.95;;;8.10;99.90;;;;;;7380729;19;20083;-70
2023/11/21 05:01:11;;;;;;;2.63;1.40;;;8.10;99.90;;;;;;7382046;19;20042;-70
2023/11/21 05:03:41;;;;;;;5.75;1.98;;;8.10;99.90;;;;;;7382183;19;20014;-69
2023/11/21 05:06:12;;;;;;;2.20;1.40;;;8.10;99.90;;;;;;7382824;19;20040;-68
2023/11/21 05:08:43;;;;;;;1.85;1.50;;;8.00;99.90;;;;;;7381148;19;22067;-69
2023/11/21 05:11:26;;;;;;;3.28;1.60;;;8.00;99.90;;;;;;7380400;19;20033;-68
2023/11/21 05:13:58;;;;;;;5.80;1.60;;;8.00;99.90;;;;;;7380723;19;20011;-68
2023/11/21 05:16:30;;;;;;;4.97;1.80;;;8.00;99.90;;;;;;7375359;19;20010;-68
2023/11/21 05:19:00;;;;;;;4.70;1.30;;;8.00;99.90;;;;;;7381508;19;20014;-69
2023/11/21 05:21:32;;;;;;;2.85;1.73;;;8.00;99.90;;;;;;7382294;19;20010;-69
2023/11/21 05:24:02;;;;;;;5.03;1.80;;;8.00;99.90;;;;;;7380272;19;20360;-69
2023/11/21 05:26:35;;;;;;;4.63;1.38;;;8.00;99.90;;;;;;7379868;19;20010;-69
2023/11/21 05:29:05;;;;;;;4.53;1.73;;;8.00;99.90;;;;;;7381457;19;20014;-69
2023/11/21 05:31:35;;;;;;;4.10;1.67;;;7.90;99.90;;;;;;7378716;19;20019;-69
2023/11/21 05:34:07;;;;;;;3.08;1.85;;;7.90;99.90;;;;;;7380681;19;20036;-69
2023/11/21 05:36:37;;;;;;;4.55;1.50;;;8.00;99.90;;;;;;7377423;19;20482;-69
2023/11/21 05:39:07;;;;;;;3.30;1.67;;;7.90;99.90;;;;;;7377600;19;20074;-71
2023/11/21 05:41:40;;;;;;;3.60;1.90;;;7.90;99.90;;;;;;7377909;19;20021;-69
2023/11/21 05:44:10;;;;;;;3.00;1.80;;;8.00;99.90;;;;;;7376950;19;20015;-71
2023/11/21 05:46:40;;;;;;;5.82;2.13;;;8.00;99.90;;;;;;7376969;19;20014;-70
2023/11/21 05:49:10;;;;;;;3.88;1.55;;;7.90;99.90;;;;;;7377882;19;20699;-70
2023/11/21 05:51:40;;;;;;;4.63;2.03;;;7.90;99.90;;;;;;7379353;19;20010;-70
2023/11/21 05:54:11;;;;;;;4.20;2.03;;;7.90;99.90;;;;;;7379338;19;20709;-70
2023/11/21 05:56:44;;;;;;;3.17;2.13;;;7.90;99.90;;;;;;7379597;19;20021;-70
2023/11/21 05:59:14;;;;;;;8.88;2.17;;;8.00;99.90;;;;;;7378886;19;20007;-69
2023/11/21 06:01:45;;;;;;;4.15;2.22;;;7.90;99.90;;;;;;7379331;19;20015;-70
2023/11/21 06:04:16;;;;;;;5.93;2.50;;;8.00;99.90;;;;;;7377918;19;20545;-70
2023/11/21 06:06:46;;;;;;;3.90;1.70;;;8.00;99.90;;;;;;7379284;19;20032;-69
2023/11/21 06:09:16;;;;;;;5.07;2.15;;;7.90;99.90;;;;;;7379192;19;20597;-70
2023/11/21 06:11:49;;;;;;;3.25;1.95;;;8.00;99.90;;;;;;7378937;19;20014;-70
2023/11/21 06:14:21;;;;;;;3.80;1.42;;;8.00;99.90;;;;;;7378133;19;20785;-68
2023/11/21 06:16:52;;;;;;;2.63;1.70;;;7.90;99.90;;;;;;7379397;19;20018;-69
2023/11/21 06:19:22;;;;;;;3.28;1.63;;;7.90;99.90;;;;;;7379646;19;20006;-69
2023/11/21 06:21:52;;;;;;;4.28;2.20;;;7.90;99.90;;;;;;7378985;19;20013;-69
2023/11/21 06:24:23;;;;;;;3.05;1.45;;;8.00;99.90;;;;;;7377291;19;20030;-69
2023/11/21 06:26:56;;;;;;;4.47;1.65;;;7.90;99.90;;;;;;7378895;19;20021;-68
2023/11/21 06:29:26;;;;;;;3.33;1.80;;;7.90;99.90;;;;;;7380675;19;20608;-68
2023/11/21 06:31:58;;;;;;;3.38;1.88;;;7.90;99.90;;;;;;7376691;19;20014;-69
2023/11/21 06:34:30;;;;;;;3.70;1.92;;;7.90;99.90;;;;;;7374020;19;20007;-69
2023/11/21 06:37:00;;;;;;;2.97;1.50;;;7.90;99.90;;;;;;7377847;19;20356;-68
2023/11/21 06:39:30;;;;;;;3.28;1.73;;;7.90;99.90;;;;;;7377722;19;20010;-68
2023/11/21 06:42:04;;;;;;;2.13;1.58;;;7.90;99.90;;;;;;7378391;19;20014;-69
2023/11/21 06:44:35;;;;;;;7.80;2.30;;;7.90;99.90;;;;;;7376605;19;20011;-69
2023/11/21 06:47:05;;;;;;;3.10;2.20;;;7.90;99.90;;;;;;7378275;19;20017;-69
2023/11/21 06:49:36;;;;;;;2.92;1.80;;;7.90;99.90;;;;;;7378346;19;20766;-69
2023/11/21 06:52:06;;;;;;;3.17;2.00;;;8.00;99.90;;;;;;7379280;19;20029;-69
2023/11/21 06:54:37;;;;;;;4.03;1.90;;;8.00;99.90;;;;;;7375638;19;20006;-69
2023/11/21 06:57:10;;;;;;;3.47;2.13;;;8.10;99.90;;;;;;7378597;19;20014;-70
2023/11/21 06:59:40;;;;;;;5.30;2.25;;;8.00;99.90;;;;;;7378363;19;20014;-69
2023/11/21 07:02:11;;;;;;;4.38;2.15;;;8.10;99.90;;;;;;7377622;19;20094;-69
2023/11/21 07:04:41;;;;;;;2.72;1.55;;;8.10;99.90;;;;;;7376861;19;20082;-69
2023/11/21 07:07:11;;;;;;;3.03;1.38;;;8.10;99.90;;;;;;7377856;19;20021;-69
2023/11/21 07:09:42;;;;;;;5.10;1.50;;;8.10;99.90;;;;;;7376637;19;20043;-70
2023/11/21 07:12:14;;;;;;;2.85;1.67;;;8.20;99.90;;;;;;7375380;19;20027;-69
2023/11/21 07:14:45;;;;;;;4.07;2.58;;;8.10;99.90;;;;;;7377113;19;20396;-69
2023/11/21 07:17:17;;;;;;;4.30;1.90;;;8.10;99.90;;;;;;7374203;19;20003;-69
2023/11/21 07:19:47;;;;;;;4.38;1.60;;;8.10;99.90;;;;;;7376297;19;20471;-70
2023/11/21 07:22:21;;;;;;;3.10;1.80;;;8.10;99.90;;;;;;7376130;19;20014;-68
2023/11/21 07:24:52;;;;;;;6.55;2.10;;;8.20;99.90;;;;;;7376434;19;20372;-68
2023/11/21 07:27:25;;;;;;;3.05;1.60;;;8.20;99.90;;;;;;7376905;19;20479;-69
2023/11/21 07:29:55;;;;;;;3.40;1.92;;;8.30;99.90;;;;;;7376755;19;20017;-69
2023/11/21 07:32:25;;;;;;;3.67;1.75;;;8.30;99.90;;;;;;7377320;19;20027;-69
2023/11/21 07:34:57;;;;;;;5.03;2.15;;;8.30;99.90;;;;;;7376969;19;20006;-68
2023/11/21 07:37:28;;;;;;;2.55;1.70;;;8.40;99.90;;;;;;7377705;19;20021;-69
2023/11/21 07:39:58;;;;;;;3.75;2.10;;;8.30;99.90;;;;;;7379043;19;20011;-68
2023/11/21 07:42:31;;;;;;;4.15;1.83;;;8.40;99.90;;;;;;7375752;19;20023;-68
2023/11/21 07:45:02;;;;;;;4.88;1.50;;;8.50;99.90;;;;;;7375760;19;20013;-70
2023/11/21 07:47:34;;;;;;;3.95;2.03;;;8.50;99.90;;;;;;7379065;19;20052;-68
2023/11/21 07:50:07;;;;;;;2.40;1.85;;;8.50;99.90;;;;;;7377634;19;20006;-69
2023/11/21 07:52:37;;;;;;;3.35;1.90;;;8.50;99.90;;;;;;7375701;19;20007;-68
2023/11/21 07:55:08;;;;;;;3.65;1.83;;;8.70;99.90;;;;;;7375380;19;20151;-69
2023/11/21 07:57:41;;;;;;;3.08;1.70;;;8.70;99.90;;;;;;7376512;19;20010;-68
2023/11/21 08:00:15;;;;;;;4.50;2.60;;;8.80;99.90;;;;;;7375993;19;20014;-69
2023/11/21 08:02:45;;;;;;;6.20;2.70;;;8.70;92.00;;;;;;7376939;19;20010;-69
2023/11/21 08:05:16;;;;;;;5.97;2.65;;;8.70;70.80;;;;;;7374450;19;20010;-69
2023/11/21 08:07:57;;;;;;;4.07;2.30;;;8.70;66.40;;;;;;7375734;19;20546;-69
2023/11/21 08:10:27;;;;;;;3.70;2.03;;;8.80;68.80;;;;;;7376687;19;20025;-69
2023/11/21 08:13:00;;;;;;;4.65;2.35;;;8.90;66.80;;;;;;7376216;19;20075;-69
2023/11/21 08:15:31;;;;;;;3.92;2.15;;;8.90;54.40;;;;;;7375137;19;20007;-69
2023/11/21 08:18:01;;;;;;;6.63;2.42;;;9.00;57.20;;;;;;7377594;19;20037;-69
2023/11/21 08:20:32;;;;;;;4.43;2.38;;;9.10;51.40;;;;;;7377667;19;20459;-69
2023/11/21 08:23:02;;;;;;;3.40;2.03;;;9.10;39.70;;;;;;7375848;19;20006;-69
2023/11/21 08:25:34;;;;;;;4.22;2.63;;;9.10;29.20;;;;;;7372669;19;20138;-69
2023/11/21 08:28:07;;;;;;;3.03;1.90;;;9.10;37.70;;;;;;7376970;19;20015;-69
2023/11/21 08:30:37;;;;;;;4.47;2.53;;;9.20;41.20;;;;;;7374234;19;20006;-69
2023/11/21 08:33:08;;;;;;;3.95;2.53;;;9.20;37.80;;;;;;7375201;19;20351;-70
2023/11/21 08:35:38;;;;;;;2.97;1.80;;;9.20;46.20;;;;;;7373626;19;20011;-69
2023/11/21 08:38:09;;;;;;;4.07;1.95;;;9.20;37.80;;;;;;7375596;19;20003;-69
2023/11/21 08:40:40;;;;;;;2.88;2.08;;;9.10;29.90;;;;;;7375051;19;20502;-70
2023/11/21 08:43:14;;;;;;;2.97;1.95;;;9.20;40.20;;;;;;7376284;19;20035;-69
2023/11/21 08:45:44;;;;;;;6.55;2.80;;;9.30;46.10;;;;;;7374187;19;20019;-69
2023/11/21 08:48:14;;;;;;;29.85;20.35;;;9.50;50.10;;;;;;7374913;19;20351;-68
2023/11/21 08:50:44;;;;;;;3.72;3.28;;;9.40;41.70;;;;;;7374706;19;20002;-69
2023/11/21 08:53:14;;;;;;;3.00;2.42;;;9.50;44.20;;;;;;7375124;19;20002;-69
2023/11/21 08:55:46;;;;;;;3.60;2.50;;;9.30;29.70;;;;;;7374835;19;20027;-69
2023/11/21 08:58:18;;;;;;;4.28;2.63;;;9.40;51.20;;;;;;7374898;19;20028;-69
2023/11/21 09:00:48;;;;;;;2.85;2.60;;;9.40;47.10;;;;;;7374674;19;20011;-69
2023/11/21 09:03:18;;;;;;;3.50;2.20;;;9.50;46.50;;;;;;7373718;19;20026;-68
2023/11/21 09:05:49;;;;;;;3.63;2.30;;;9.00;40.40;;;;;;7373790;19;20037;-69
2023/11/21 09:08:19;;;;;;;2.33;2.13;;;9.10;75.90;;;;;;7375174;19;20526;-69
2023/11/21 09:10:49;;;;;;;3.97;2.13;;;9.40;78.20;;;;;;7373793;19;20015;-69
2023/11/21 09:13:22;;;;;;;2.90;2.22;;;9.20;47.10;;;;;;7373454;19;20400;-69
2023/11/21 09:15:54;;;;;;;3.60;2.03;;;9.20;68.50;;;;;;7373380;19;20017;-69
2023/11/21 09:18:25;;;;;;;3.33;1.90;;;9.10;87.40;;;;;;7374495;19;20073;-69
2023/11/21 09:20:55;;;;;;;3.05;1.83;;;9.20;87.80;;;;;;7373218;19;20571;-70
2023/11/21 09:23:25;;;;;;;2.10;1.90;;;9.10;93.30;;;;;;7373431;19;20413;-70
2023/11/21 09:25:56;;;;;;;2.13;1.90;;;9.10;99.80;;;;;;7372544;19;20094;-68
2023/11/21 09:28:30;;;;;;;4.82;2.20;;;9.10;99.90;;;;;;7374299;19;20027;-68
2023/11/21 09:31:03;;;;;;;4.22;2.30;;;9.20;99.90;;;;;;7373919;19;20111;-68
2023/11/21 09:33:34;;;;;;;1.60;1.50;;;9.30;99.90;;;;;;7374630;19;20419;-70
2023/11/21 09:36:04;;;;;;;2.00;1.80;;;9.20;98.80;;;;;;7381431;19;20023;-71
2023/11/21 09:38:35;;;;;;;3.80;2.30;;;9.20;99.90;;;;;;7382865;19;20014;-70
2023/11/21 09:41:07;;;;;;;5.10;2.70;;;9.30;99.90;;;;;;7382071;19;20006;-70
2023/11/21 09:43:41;;;;;;;3.65;2.53;;;9.40;99.90;;;;;;7381514;19;20625;-69
2023/11/21 09:46:16;;;;;;;9.48;6.65;;;9.30;99.90;;;;;;7377653;19;20127;-69
2023/11/21 09:48:47;;;;;;;3.83;2.30;;;9.40;99.90;;;;;;7382066;19;20003;-70
2023/11/21 09:51:19;;;;;;;2.05;1.75;;;9.40;99.90;;;;;;7379564;19;20011;-69
2023/11/21 09:53:52;;;;;;;4.40;1.90;;;9.30;99.90;;;;;;7381580;19;20121;-70
2023/11/21 09:56:23;;;;;;;3.35;1.50;;;9.30;99.90;;;;;;7381188;19;20021;-70
2023/11/21 09:58:58;;;;;;;2.80;1.35;;;9.10;99.90;;;;;;7381335;19;20384;-68
2023/11/21 10:01:30;;;;;;;1.65;1.40;;;9.00;99.90;;;;;;7381636;19;20010;-68
2023/11/21 10:04:00;;;;;;;1.85;1.40;;;9.00;99.90;;;;;;7381350;19;20014;-68
2023/11/21 10:06:33;;;;;;;1.70;1.60;;;9.00;99.90;;;;;;7379002;19;20011;-68
2023/11/21 10:09:03;;;;;;;2.00;1.80;;;9.10;99.90;;;;;;7380239;19;20024;-69
2023/11/21 10:11:33;;;;;;;4.78;2.10;;;9.20;99.90;;;;;;7380909;19;20090;-69
2023/11/21 10:14:07;;;;;;;2.35;2.10;;;9.20;99.90;;;;;;7379339;19;20127;-70
2023/11/21 10:16:38;;;;;;;1.73;1.63;;;8.80;99.90;;;;;;7376670;19;20010;-70
2023/11/21 10:19:08;;;;;;;3.28;2.70;;;8.90;99.90;;;;;;7382018;19;20015;-69
2023/11/21 10:21:41;;;;;;;3.05;2.60;;;9.00;99.90;;;;;;7383107;19;20007;-69
2023/11/21 10:24:12;;;;;;;3.45;2.15;;;9.00;99.90;;;;;;7379790;19;20022;-69
2023/11/21 10:26:43;;;;;;;5.25;2.47;;;9.00;99.90;;;;;;7379699;19;20046;-70
2023/11/21 10:29:26;;;;;;;8.00;2.20;;;9.20;99.90;;;;;;7380097;19;20363;-69
2023/11/21 10:31:58;;;;;;;5.72;2.20;;;9.20;99.90;;;;;;7380352;19;20014;-69
2023/11/21 10:34:29;;;;;;;3.75;2.10;;;9.30;99.90;;;;;;7377788;19;20369;-70
2023/11/21 10:37:00;;;;;;;4.32;2.40;;;9.40;99.90;;;;;;7380974;19;20006;-69
2023/11/21 10:39:30;;;;;;;7.10;2.55;;;9.50;99.90;;;;;;7381637;19;20007;-70
2023/11/21 10:42:01;;;;;;;4.82;2.15;;;9.60;99.90;;;;;;7379193;19;20031;-69
2023/11/21 10:44:34;;;;;;;2.90;2.00;;;9.70;99.90;;;;;;7378780;19;20010;-68
2023/11/21 10:47:05;;;;;;;3.13;2.00;;;9.70;99.90;;;;;;7380549;19;20485;-68
2023/11/21 10:49:35;;;;;;;3.72;2.20;;;9.80;99.90;;;;;;7379826;19;20014;-69
2023/11/21 10:52:06;;;;;;;1.90;1.80;;;9.70;88.60;;;;;;7379266;19;20638;-69
2023/11/21 10:54:36;;;;;;;4.32;1.90;;;9.80;80.00;;;;;;7378888;19;20082;-69
2023/11/21 10:57:08;;;;;;;2.83;2.10;;;9.90;69.30;;;;;;7381439;19;20002;-68
2023/11/21 10:59:41;;;;;;;2.65;2.13;;;10.00;63.10;;;;;;7380249;19;20632;-70
2023/11/21 11:02:24;;;;;;;3.97;2.60;;;10.10;48.40;;;;;;7379632;19;20013;-68
2023/11/21 11:04:56;;;;;;;8.05;3.55;;;10.20;34.70;;;;;;6867785;19;2004857;-69
2023/11/21 11:07:30;;;;;;;7.55;3.28;;;10.10;23.00;;;;;;7378543;19;20015;-68
2023/11/21 11:10:03;;;;;;;2.63;2.25;;;10.20;16.40;;;;;;7379987;19;20016;-69
2023/11/21 11:12:34;;;;;;;3.40;2.17;;;10.10;14.00;;;;;;7378367;19;20057;-69
2023/11/21 11:15:09;;;;;;;3.08;2.78;;;9.70;21.10;;;;;;7378192;19;20854;-69
2023/11/21 11:17:41;;;;;;;;;;;9.90;32.70;;;;;;7379206;19;20078;-69
2023/11/21 11:20:17;;;;;;;4.43;2.60;;;9.70;49.60;;;;;;7379184;19;19925;-70
2023/11/21 11:23:14;;;;;;;2.90;2.53;;;9.70;88.30;;;;;;7376402;19;20868;-70
2023/11/21 11:26:01;;;;;;;4.95;2.85;;;9.30;99.90;;;;;;7374807;19;20078;-70
2023/11/21 11:28:39;;;;;;;3.63;3.13;;;9.40;99.90;;;;;;6868267;19;2004904;-69
2023/11/21 11:31:20;;;;;;;3.60;3.20;;;9.30;99.90;;;;;;7378272;19;20014;-70
2023/11/21 11:33:56;;;;;;;3.78;3.30;;;9.50;99.90;;;;;;7376460;19;20025;-69
2023/11/21 11:36:28;;;;;;;;;;;9.60;99.90;;;;;;7378363;19;20380;-69
2023/11/21 11:38:58;;;;;;;4.72;3.15;;;9.60;99.90;;;;;;7378335;19;19915;-69
2023/11/21 11:41:32;;;;;;;4.20;2.80;;;9.60;99.90;;;;;;7377470;19;20014;-69
2023/11/21 11:44:05;;;;;;;3.70;2.80;;;9.40;99.90;;;;;;7376991;19;20023;-70
2023/11/21 11:46:47;;;;;;;4.65;2.78;;;9.30;99.90;;;;;;7376709;19;20155;-70
2023/11/21 11:49:26;;;;;;;3.33;3.03;;;9.40;99.90;;;;;;7374450;19;20020;-69
2023/11/21 11:52:29;;;;;;;5.82;3.35;;;9.50;99.90;;;;;;7376338;19;20014;-70
2023/11/21 11:54:59;;;;;;;5.70;4.03;;;9.50;99.90;;;;;;6865430;19;2004263;-69
2023/11/21 11:57:31;;;;;;;2.88;2.58;;;9.50;99.90;;;;;;7376001;19;20020;-69
2023/11/21 12:00:20;;;;;;;3.22;2.90;;;9.40;99.90;;;;;;7377681;19;20032;-69
2023/11/21 12:02:54;;;;;;;9.38;7.57;;;9.40;99.90;;;;;;7375171;19;20031;-69
2023/11/21 12:05:27;;;;;;;5.07;4.47;;;9.40;99.90;;;;;;7375904;19;20010;-69
2023/11/21 12:07:59;;;;;;;6.05;5.05;;;9.50;99.90;;;;;;7376530;19;20015;-69
2023/11/21 12:10:32;;;;;;;4.38;3.97;;;9.70;99.90;;;;;;7376761;19;20017;-70
2023/11/21 12:13:04;;;;;;;4.15;3.35;;;9.70;99.90;;;;;;7376399;19;20070;-70
2023/11/21 12:15:35;;;;;;;7.13;3.03;;;9.90;99.90;;;;;;7375974;19;20014;-70
2023/11/21 12:18:09;;;;;;;3.85;3.10;;;10.00;99.90;;;;;;7376818;19;20013;-70
2023/11/21 12:20:42;;;;;;;3.33;3.03;;;10.20;99.90;;;;;;7376759;19;20014;-70
2023/11/21 12:23:15;;;;;;;3.28;2.97;;;10.10;64.00;;;;;;7377114;19;20020;-69
2023/11/21 12:25:45;;;;;;;4.03;3.00;;;10.10;71.10;;;;;;7376477;19;20048;-70
2023/11/21 12:28:16;;;;;;;3.95;3.30;;;10.10;74.00;;;;;;7376788;19;20019;-69
2023/11/21 12:30:47;;;;;;;3.40;3.10;;;10.10;77.90;;;;;;7377372;19;20010;-69
2023/11/21 12:33:19;;;;;;;3.10;2.80;;;9.80;67.20;;;;;;7376217;19;20007;-69
2023/11/21 12:35:49;;;;;;;3.40;3.00;;;9.80;78.80;;;;;;7373317;19;20028;-69
2023/11/21 12:38:19;;;;;;;2.67;2.47;;;9.80;75.80;;;;;;7375687;19;20002;-69
2023/11/21 12:40:50;;;;;;;4.20;3.30;;;9.60;99.90;;;;;;7375048;19;20025;-71
2023/11/21 12:43:20;;;;;;;6.18;3.45;;;9.50;99.90;;;;;;7375683;19;20086;-68
2023/11/21 12:45:52;;;;;;;3.65;2.70;;;9.40;99.90;;;;;;7376042;19;20014;-70
2023/11/21 12:48:25;;;;;;;2.28;2.08;;;9.30;99.90;;;;;;7374394;19;20009;-69
2023/11/21 12:51:00;;;;;;;3.35;2.25;;;9.10;99.90;;;;;;7375520;19;20337;-69
2023/11/21 12:53:36;;;;;;;3.05;2.60;;;9.00;99.90;;;;;;7375750;19;20047;-69
2023/11/21 12:56:11;;;;;;;3.05;2.53;;;9.00;99.90;;;;;;7375573;19;20523;-69
2023/11/21 12:58:46;;;;;;;2.28;1.80;;;9.00;99.90;;;;;;7376824;19;20014;-69
2023/11/21 13:01:18;;;;;;;1.73;1.60;;;9.00;99.90;;;;;;7375991;19;20011;-68
2023/11/21 13:03:53;;;;;;;1.65;1.40;;;8.80;99.90;;;;;;7376327;19;20416;-70
2023/11/21 13:06:25;;;;;;;;;;;8.90;99.90;;;;;;7371011;19;20009;-69
2023/11/21 13:08:57;;;;;;;2.40;1.90;;;8.80;99.90;;;;;;7376248;19;19929;-69
2023/11/21 13:11:31;;;;;;;2.55;2.03;;;8.90;99.90;;;;;;7381809;19;20014;-69
2023/11/21 13:14:01;;;;;;;;;;;8.90;99.90;;;;;;7383121;19;20018;-69
2023/11/21 13:16:31;;;;;;;2.50;2.30;;;8.90;99.90;;;;;;7380121;19;19911;-69
2023/11/21 13:19:04;;;;;;;4.50;3.28;;;8.90;99.90;;;;;;7382189;19;20518;-69
2023/11/21 13:21:34;;;;;;;3.85;2.75;;;8.90;99.90;;;;;;7381445;19;20517;-69